Ship Status Report: callsign PC8649

sailwx.info

Track history (hours):
 
Tides and Currents Weather Stations Pressure Air Temp Water Temp Dewpoint Dewpoint Depression Visibility Wind Speed Wind Dir Waves Ship Positions

Callsign PC8649 (name unknown)

Last reported at 2017-Sep-26 11:00 UTC. Time now 2017-Nov-25 08:02 UTC.
Position N 43°14' E 005°19'.
Warning: this ship's position is 59 days out of date.

Date/timePositionNaut miles runAvg speedWind from/ knotsBaromVisibWave heightAir tempDewpointWater temp
2017-Sep-26 11:00N 43°14' E 005°19'2 3.1
2017-Sep-26 10:30N 43°16' E 005°18'5 0.3
2017-Sep-25 17:43N 43°20' E 005°18'4 7.6
2017-Sep-25 17:10N 43°16' E 005°18'0 0.0
2017-Sep-25 16:58N 43°16' E 005°18'0 0.0
2017-Sep-25 16:28N 43°16' E 005°18'0 0.0
2017-Sep-25 15:58N 43°16' E 005°18'0 0.0
2017-Sep-25 15:28N 43°16' E 005°18'0 0.0
2017-Sep-25 14:58N 43°16' E 005°18'0 0.0
2017-Sep-25 14:28N 43°16' E 005°18'0 0.0
2017-Sep-25 13:49N 43°16' E 005°18'0 0.0
2017-Sep-25 13:19N 43°16' E 005°18'0 0.0
2017-Sep-25 12:37N 43°16' E 005°18'0 0.1
2017-Sep-25 12:18N 43°16' E 005°18'2 3.8
2017-Sep-25 11:41N 43°16' E 005°15'7 5.2
2017-Sep-25 10:22N 43°18' E 005°06'2 5.0
2017-Sep-25 10:00N 43°18' E 005°04'2 4.7
2017-Sep-25 09:30N 43°19' E 005°01'2 4.9
2017-Sep-25 09:00N 43°21' E 004°59'2 4.8
2017-Sep-25 08:30N 43°23' E 004°57'2 0.1
2017-Sep-24 15:50N 43°26' E 004°57'0 0.0
2017-Sep-24 15:29N 43°26' E 004°57'0 0.0
2017-Sep-24 14:56N 43°26' E 004°57'0 0.0
2017-Sep-24 14:20N 43°26' E 004°57'  
2017-Sep-17 14:09N 41°15' E 001°55'1 4.6
2017-Sep-17 14:00N 41°15' E 001°55'2 4.2
2017-Sep-17 13:29N 41°13' E 001°53'3 5.3
2017-Sep-17 12:59N 41°12' E 001°50'2 4.9
2017-Sep-17 12:29N 41°12' E 001°46'3 5.0
2017-Sep-17 11:58N 41°11' E 001°43'3 5.3
2017-Sep-17 11:28N 41°11' E 001°40'  
Track history (hours):
 
Tides and Currents Weather Stations Pressure Air Temp Water Temp Dewpoint Dewpoint Depression Visibility Wind Speed Wind Dir Waves Ship Positions

Callsign PC8649 (name unknown)

Last reported at 2017-Sep-26 11:00 UTC. Time now 2017-Nov-25 08:02 UTC.
Position N 43°14' E 005°19'.
Warning: this ship's position is 59 days out of date.

Date/timePositionNaut miles runAvg speedWind from/ knotsBaromVisibWave heightAir tempDewpointWater temp
2017-Sep-26 11:00N 43°14' E 005°19'2 3.1
2017-Sep-26 10:30N 43°16' E 005°18'5 0.3
2017-Sep-25 17:43N 43°20' E 005°18'4 7.6
2017-Sep-25 17:10N 43°16' E 005°18'0 0.0
2017-Sep-25 16:58N 43°16' E 005°18'0 0.0
2017-Sep-25 16:28N 43°16' E 005°18'0 0.0
2017-Sep-25 15:58N 43°16' E 005°18'0 0.0
2017-Sep-25 15:28N 43°16' E 005°18'0 0.0
2017-Sep-25 14:58N 43°16' E 005°18'0 0.0
2017-Sep-25 14:28N 43°16' E 005°18'0 0.0
2017-Sep-25 13:49N 43°16' E 005°18'0 0.0
2017-Sep-25 13:19N 43°16' E 005°18'0 0.0
2017-Sep-25 12:37N 43°16' E 005°18'0 0.1
2017-Sep-25 12:18N 43°16' E 005°18'2 3.8
2017-Sep-25 11:41N 43°16' E 005°15'7 5.2
2017-Sep-25 10:22N 43°18' E 005°06'2 5.0
2017-Sep-25 10:00N 43°18' E 005°04'2 4.7
2017-Sep-25 09:30N 43°19' E 005°01'2 4.9
2017-Sep-25 09:00N 43°21' E 004°59'2 4.8
2017-Sep-25 08:30N 43°23' E 004°57'2 0.1
2017-Sep-24 15:50N 43°26' E 004°57'0 0.0
2017-Sep-24 15:29N 43°26' E 004°57'0 0.0
2017-Sep-24 14:56N 43°26' E 004°57'0 0.0
2017-Sep-24 14:20N 43°26' E 004°57'  
2017-Sep-17 14:09N 41°15' E 001°55'1 4.6
2017-Sep-17 14:00N 41°15' E 001°55'2 4.2
2017-Sep-17 13:29N 41°13' E 001°53'3 5.3
2017-Sep-17 12:59N 41°12' E 001°50'2 4.9
2017-Sep-17 12:29N 41°12' E 001°46'3 5.0
2017-Sep-17 11:58N 41°11' E 001°43'3 5.3
2017-Sep-17 11:28N 41°11' E 001°40'  

Dump ship's entire track history